Time;durP1;ratioP1;P1;durP2;ratioP2;P2;SDS_P1;SDS_P2;PMS_P1;PMS_P2;Temp;Humidity;BMP_temperature;BMP_pressure;BME280_temperature;BME280_humidity;BME280_pressure;Samples;Min_cycle;Max_cycle;Signal;HPM_P1;HPM_P2
2023/07/12 00:00:52;;;;;;;6.18;2.90;;;22.40;71.70;;;;;;4970791;28;20030;-80
2023/07/12 00:03:18;;;;;;;4.72;2.92;;;22.30;71.90;;;;;;4970643;28;20030;-80
2023/07/12 00:05:46;;;;;;;13.02;2.80;;;22.40;72.30;;;;;;4988038;28;20450;-78
2023/07/12 00:08:26;;;;;;;5.20;2.53;;;22.30;72.50;;;;;;4970206;28;20547;-80
2023/07/12 00:10:55;;;;;;;5.60;3.05;;;22.30;72.90;;;;;;4988148;28;20685;-80
2023/07/12 00:13:21;;;;;;;7.25;3.00;;;22.20;73.10;;;;;;4970740;28;20031;-79
2023/07/12 00:15:48;;;;;;;6.72;2.95;;;22.20;73.40;;;;;;4970703;28;20038;-79
2023/07/12 00:18:20;;;;;;;8.13;2.95;;;22.30;73.40;;;;;;4987894;28;20026;-80
2023/07/12 00:20:47;;;;;;;4.97;2.90;;;22.30;73.90;;;;;;4970281;28;20054;-79
2023/07/12 00:23:14;;;;;;;8.07;3.10;;;22.20;74.00;;;;;;4988072;28;20109;-78
2023/07/12 00:25:41;;;;;;;7.85;3.00;;;22.20;74.20;;;;;;4970535;28;20037;-79
2023/07/12 00:28:24;;;;;;;9.00;3.95;;;22.20;74.40;;;;;;4970497;28;20146;-79
2023/07/12 00:30:52;;;;;;;8.95;3.40;;;22.10;74.60;;;;;;4970313;28;20027;-79
2023/07/12 00:33:18;;;;;;;8.95;2.88;;;22.20;74.40;;;;;;4987714;28;20034;-79
2023/07/12 00:35:44;;;;;;;6.93;3.00;;;22.10;74.10;;;;;;4987824;28;20114;-80
2023/07/12 00:38:18;;;;;;;6.28;2.70;;;22.20;74.00;;;;;;4987433;28;20069;-80
2023/07/12 00:40:59;;;;;;;6.20;3.08;;;22.20;74.30;;;;;;4970185;28;20030;-80
2023/07/12 00:43:41;;;;;;;6.97;2.92;;;22.20;74.00;;;;;;4987879;28;20022;-80
2023/07/12 00:46:21;;;;;;;6.10;3.20;;;22.20;74.20;;;;;;4987470;28;20030;-79
2023/07/12 00:48:47;;;;;;;7.22;3.00;;;22.20;73.80;;;;;;4970247;28;20034;-80
2023/07/12 00:51:38;;;;;;;8.85;3.10;;;22.20;74.00;;;;;;4969654;28;20037;-80
2023/07/12 00:54:11;;;;;;;5.53;2.80;;;22.30;73.70;;;;;;4972068;28;20039;-80
2023/07/12 00:56:37;;;;;;;9.95;3.33;;;22.30;73.90;;;;;;4970089;28;20800;-79
2023/07/12 00:59:06;;;;;;;8.18;2.97;;;22.20;73.50;;;;;;4987433;28;20036;-79
2023/07/12 01:01:35;;;;;;;5.80;2.65;;;22.30;73.70;;;;;;4987439;28;20467;-81
2023/07/12 01:04:03;;;;;;;5.28;2.80;;;22.30;73.60;;;;;;4969912;28;20119;-80
2023/07/12 01:06:30;;;;;;;12.63;3.20;;;22.30;73.70;;;;;;4969836;28;20406;-82
2023/07/12 01:09:01;;;;;;;3.72;2.53;;;22.20;74.00;;;;;;4987452;28;20054;-80
2023/07/12 01:11:29;;;;;;;5.10;3.42;;;22.30;73.80;;;;;;4970096;28;20080;-81
2023/07/12 01:13:54;;;;;;;5.60;3.08;;;22.30;74.00;;;;;;4969945;28;20080;-77
2023/07/12 01:16:22;;;;;;;5.07;3.38;;;22.30;73.70;;;;;;4987198;28;20034;-80
2023/07/12 01:18:48;;;;;;;7.18;2.95;;;22.20;73.90;;;;;;4969685;28;20031;-78
2023/07/12 01:21:24;;;;;;;13.38;3.85;;;22.20;74.30;;;;;;4987051;28;20038;-78
2023/07/12 01:23:49;;;;;;;4.30;2.85;;;22.20;74.50;;;;;;4987175;28;20026;-78
2023/07/12 01:26:32;;;;;;;8.73;3.28;;;22.20;74.60;;;;;;4987256;28;20111;-78
2023/07/12 01:29:00;;;;;;;4.70;3.08;;;22.10;74.80;;;;;;4969647;28;20062;-77
2023/07/12 01:31:27;;;;;;;13.00;3.00;;;22.20;74.90;;;;;;4987264;28;20030;-77
2023/07/12 01:33:54;;;;;;;8.10;3.33;;;22.20;75.80;;;;;;4987807;28;20026;-76
2023/07/12 01:36:21;;;;;;;6.32;3.17;;;22.10;75.20;;;;;;4987419;28;20106;-77
2023/07/12 01:38:49;;;;;;;7.15;3.25;;;22.10;75.40;;;;;;4986733;28;20419;-78
2023/07/12 01:41:14;;;;;;;7.50;3.33;;;22.10;75.60;;;;;;4986770;28;20034;-78
2023/07/12 01:43:40;;;;;;;5.00;3.45;;;22.10;75.80;;;;;;4987314;28;20031;-81
2023/07/12 01:46:06;;;;;;;6.45;3.75;;;22.10;76.20;;;;;;4969433;28;20034;-80
2023/07/12 01:48:32;;;;;;;4.50;3.70;;;22.00;76.30;;;;;;4969319;28;20137;-79
2023/07/12 01:50:59;;;;;;;7.45;3.33;;;22.10;76.50;;;;;;4986845;28;20054;-79
2023/07/12 01:53:25;;;;;;;7.07;2.88;;;22.10;76.20;;;;;;4969270;28;20048;-80
2023/07/12 01:55:51;;;;;;;6.53;3.33;;;22.10;76.60;;;;;;4969368;28;20556;-79
2023/07/12 01:58:16;;;;;;;5.55;3.60;;;22.20;76.70;;;;;;4969480;28;20039;-79
2023/07/12 02:00:42;;;;;;;5.05;3.47;;;22.10;77.20;;;;;;4986650;28;20034;-79
2023/07/12 02:03:08;;;;;;;5.30;3.45;;;22.10;76.80;;;;;;4989762;28;20649;-80
2023/07/12 02:05:34;;;;;;;6.43;3.35;;;22.10;77.10;;;;;;4989768;28;20033;-80
2023/07/12 02:07:59;;;;;;;8.07;3.90;;;22.10;77.30;;;;;;4989898;28;20046;-78
2023/07/12 02:10:25;;;;;;;5.53;3.50;;;22.00;77.70;;;;;;4972311;28;20033;-77
2023/07/12 02:12:52;;;;;;;6.80;3.60;;;22.00;77.90;;;;;;4989843;28;20030;-78
2023/07/12 02:15:18;;;;;;;7.13;3.05;;;22.00;78.20;;;;;;4972314;28;20647;-77
2023/07/12 02:17:45;;;;;;;8.18;3.72;;;22.00;78.50;;;;;;4972330;28;20113;-77
2023/07/12 02:20:12;;;;;;;4.97;3.50;;;22.00;78.90;;;;;;4989444;28;20479;-77
2023/07/12 02:22:41;;;;;;;8.68;3.88;;;21.90;79.00;;;;;;4989660;28;20588;-77
2023/07/12 02:25:08;;;;;;;7.78;3.85;;;21.90;79.00;;;;;;4972185;28;20030;-77
2023/07/12 02:27:34;;;;;;;5.10;3.17;;;21.90;79.30;;;;;;4989567;28;20526;-78
2023/07/12 02:30:00;;;;;;;5.80;3.30;;;21.80;79.50;;;;;;4989683;28;20034;-78
2023/07/12 02:32:27;;;;;;;5.72;3.33;;;21.80;79.70;;;;;;4971939;28;20027;-79
2023/07/12 02:34:53;;;;;;;5.30;3.45;;;21.90;79.90;;;;;;4972072;28;20103;-79
2023/07/12 02:37:18;;;;;;;5.93;3.67;;;21.80;80.10;;;;;;4971924;28;20026;-79
2023/07/12 02:39:45;;;;;;;16.80;3.95;;;21.80;80.50;;;;;;4989512;28;20034;-78
2023/07/12 02:42:11;;;;;;;8.50;3.92;;;21.80;80.50;;;;;;4989388;28;20026;-79
2023/07/12 02:44:40;;;;;;;5.75;3.88;;;21.80;80.90;;;;;;4989500;28;20034;-77
2023/07/12 02:47:10;;;;;;;6.40;3.90;;;21.80;80.80;;;;;;4972124;28;20057;-78
2023/07/12 02:49:37;;;;;;;8.23;3.88;;;21.90;80.90;;;;;;4971952;28;20030;-78
2023/07/12 02:52:04;;;;;;;6.00;3.80;;;21.90;80.90;;;;;;4971648;28;20065;-77
2023/07/12 02:54:30;;;;;;;6.10;4.03;;;21.90;81.00;;;;;;4989179;28;20493;-77
2023/07/12 02:56:57;;;;;;;4.82;3.70;;;21.90;81.00;;;;;;4989092;28;20056;-78
2023/07/12 02:59:23;;;;;;;5.40;3.33;;;21.90;81.00;;;;;;4989301;28;20430;-77
2023/07/12 03:01:48;;;;;;;6.63;3.53;;;22.00;81.10;;;;;;4989155;28;20035;-78
2023/07/12 03:04:14;;;;;;;8.57;3.80;;;21.90;81.10;;;;;;4971557;28;20498;-78
2023/07/12 03:06:40;;;;;;;7.13;4.18;;;21.90;81.50;;;;;;4971462;28;20518;-78
2023/07/12 03:09:06;;;;;;;6.10;3.40;;;21.90;81.50;;;;;;4988937;28;20103;-78
2023/07/12 03:11:32;;;;;;;6.22;4.03;;;22.00;81.50;;;;;;4988871;28;20061;-78
2023/07/12 03:13:58;;;;;;;6.60;3.92;;;22.00;81.10;;;;;;4988148;28;20030;-78
2023/07/12 03:16:24;;;;;;;6.93;4.40;;;22.10;81.50;;;;;;4988767;28;20593;-78
2023/07/12 03:18:51;;;;;;;7.78;4.32;;;22.10;81.40;;;;;;4988941;28;20113;-77
2023/07/12 03:21:17;;;;;;;6.00;3.45;;;22.20;81.00;;;;;;4971243;28;20027;-78
2023/07/12 03:23:42;;;;;;;7.18;4.30;;;22.20;80.80;;;;;;4988889;28;20042;-78
2023/07/12 03:26:08;;;;;;;9.35;3.75;;;22.20;80.80;;;;;;4971086;28;20035;-77
2023/07/12 03:28:34;;;;;;;7.78;3.40;;;22.20;81.00;;;;;;4971259;28;20034;-77
2023/07/12 03:31:02;;;;;;;7.93;4.38;;;22.20;81.30;;;;;;4988609;28;20398;-76
2023/07/12 03:33:29;;;;;;;13.43;4.00;;;22.20;80.90;;;;;;4988426;28;20447;-78
2023/07/12 03:35:55;;;;;;;5.25;3.92;;;22.20;80.90;;;;;;4988645;28;20026;-79
2023/07/12 03:38:25;;;;;;;6.30;3.05;;;22.30;80.90;;;;;;4988360;28;20403;-78
2023/07/12 03:40:51;;;;;;;6.68;4.05;;;22.40;80.80;;;;;;4970938;28;20411;-78
2023/07/12 03:43:17;;;;;;;6.45;4.05;;;22.50;80.50;;;;;;4988526;28;20037;-79
2023/07/12 03:45:43;;;;;;;7.13;4.28;;;22.60;80.30;;;;;;4988350;28;20113;-78
2023/07/12 03:48:09;;;;;;;8.30;4.35;;;22.70;80.60;;;;;;4988108;28;20045;-78
2023/07/12 03:50:39;;;;;;;16.48;4.32;;;22.80;79.30;;;;;;4970827;28;20027;-77
2023/07/12 03:53:05;;;;;;;6.90;3.53;;;22.90;79.40;;;;;;4971043;28;20099;-79
2023/07/12 03:55:31;;;;;;;9.63;4.40;;;23.00;79.00;;;;;;4970927;28;20027;-77
2023/07/12 03:57:56;;;;;;;6.72;4.80;;;23.10;78.50;;;;;;4988333;28;20495;-79
2023/07/12 04:00:22;;;;;;;5.78;3.72;;;23.20;78.60;;;;;;4987906;28;20053;-79
2023/07/12 04:02:48;;;;;;;9.10;3.60;;;23.30;77.80;;;;;;4970975;28;20081;-79
2023/07/12 04:05:13;;;;;;;4.68;3.10;;;23.40;78.20;;;;;;4988216;28;20030;-79
2023/07/12 04:07:39;;;;;;;7.10;3.53;;;23.50;77.90;;;;;;4987901;28;20592;-77
2023/07/12 04:10:06;;;;;;;8.98;3.53;;;23.50;76.60;;;;;;4988106;28;20029;-76
2023/07/12 04:12:31;;;;;;;7.10;4.05;;;23.50;76.30;;;;;;4970725;28;20046;-76
2023/07/12 04:14:58;;;;;;;10.75;3.40;;;23.50;77.10;;;;;;4987921;28;20018;-76
2023/07/12 04:17:24;;;;;;;6.55;3.65;;;23.60;78.00;;;;;;4988037;28;20022;-79
2023/07/12 04:19:49;;;;;;;6.75;3.85;;;23.50;77.20;;;;;;4970940;28;20026;-79
2023/07/12 04:22:16;;;;;;;5.45;3.55;;;23.40;76.80;;;;;;4987551;28;20026;-78
2023/07/12 04:24:41;;;;;;;7.45;3.05;;;23.40;77.30;;;;;;4970469;28;20023;-78
2023/07/12 04:27:07;;;;;;;5.68;3.67;;;23.40;76.30;;;;;;4970312;28;20046;-80
2023/07/12 04:29:33;;;;;;;6.18;3.42;;;23.50;75.70;;;;;;4987839;28;20520;-80
2023/07/12 04:31:58;;;;;;;6.88;3.53;;;23.50;75.70;;;;;;4970058;28;20079;-78
2023/07/12 04:34:24;;;;;;;4.40;3.00;;;23.60;75.80;;;;;;4987595;28;20102;-77
2023/07/12 04:36:53;;;;;;;5.78;3.40;;;23.70;76.50;;;;;;4987480;28;20113;-79
2023/07/12 04:39:19;;;;;;;8.23;3.03;;;23.70;75.20;;;;;;4969974;28;20129;-79
2023/07/12 04:41:44;;;;;;;6.30;3.90;;;23.70;76.30;;;;;;4970090;28;20129;-80
2023/07/12 04:44:10;;;;;;;6.80;3.10;;;23.80;75.90;;;;;;4987718;28;20022;-84
2023/07/12 04:46:36;;;;;;;4.95;3.17;;;23.90;75.40;;;;;;4970805;28;20627;-82
2023/07/12 04:49:01;;;;;;;8.93;3.47;;;23.90;75.00;;;;;;4988475;28;20471;-83
2023/07/12 04:51:27;;;;;;;8.27;3.65;;;23.90;74.60;;;;;;4988327;28;20039;-80
2023/07/12 04:53:53;;;;;;;6.30;3.03;;;23.90;75.10;;;;;;4969734;28;20046;-81
2023/07/12 04:56:18;;;;;;;6.35;3.03;;;23.90;75.10;;;;;;4969152;28;20027;-80
2023/07/12 04:58:44;;;;;;;8.80;3.50;;;24.10;74.90;;;;;;4969379;28;20510;-81
2023/07/12 05:01:10;;;;;;;6.50;3.40;;;24.20;74.70;;;;;;4969645;28;20083;-82
2023/07/12 05:03:36;;;;;;;5.03;3.83;;;24.30;75.30;;;;;;4969445;28;20806;-82
2023/07/12 05:06:02;;;;;;;5.15;3.50;;;24.20;75.00;;;;;;4970254;28;20037;-81
2023/07/12 05:08:28;;;;;;;4.68;2.75;;;24.20;74.90;;;;;;4970739;28;20035;-81
2023/07/12 05:11:00;;;;;;;4.57;3.42;;;24.20;73.90;;;;;;4987865;28;20073;-83
2023/07/12 05:13:27;;;;;;;15.23;3.72;;;24.20;74.20;;;;;;4969801;28;20030;-82
2023/07/12 05:15:53;;;;;;;6.10;3.40;;;24.20;74.60;;;;;;4969996;28;20030;-83
2023/07/12 05:18:20;;;;;;;7.72;3.47;;;24.20;74.30;;;;;;4970508;28;20094;-83
2023/07/12 05:20:46;;;;;;;5.15;3.65;;;24.30;74.40;;;;;;4970450;28;20030;-83
2023/07/12 05:23:12;;;;;;;6.25;2.85;;;24.50;73.30;;;;;;4970276;28;20514;-81
2023/07/12 05:25:37;;;;;;;6.60;3.28;;;24.60;73.60;;;;;;4970204;28;20031;-81
2023/07/12 05:28:03;;;;;;;4.57;3.22;;;24.90;73.60;;;;;;4970105;28;20520;-82
2023/07/12 05:30:32;;;;;;;11.70;3.92;;;25.20;71.80;;;;;;4987177;28;20028;-81
2023/07/12 05:32:58;;;;;;;9.13;4.20;;;25.50;69.90;;;;;;4969605;28;20503;-82
2023/07/12 05:35:24;;;;;;;6.10;3.85;;;25.80;68.40;;;;;;4969410;28;20019;-83
2023/07/12 05:37:50;;;;;;;10.27;4.22;;;25.80;68.80;;;;;;4990252;28;20093;-82
2023/07/12 05:40:16;;;;;;;7.13;4.30;;;25.80;69.10;;;;;;4973372;28;20023;-83
2023/07/12 05:42:42;;;;;;;6.15;3.35;;;26.10;69.30;;;;;;4990546;28;20030;-82
2023/07/12 05:45:09;;;;;;;5.93;3.90;;;25.90;68.80;;;;;;4973628;28;20036;-83
2023/07/12 05:47:36;;;;;;;9.65;4.10;;;25.90;68.90;;;;;;4973651;28;20034;-83
2023/07/12 05:50:02;;;;;;;12.32;4.65;;;25.90;68.60;;;;;;4990943;28;20030;-82
2023/07/12 05:52:28;;;;;;;9.85;5.28;;;25.70;70.00;;;;;;4972789;28;20550;-84
2023/07/12 05:54:54;;;;;;;7.38;4.20;;;25.70;69.60;;;;;;4974044;28;20426;-82
2023/07/12 05:57:20;;;;;;;9.55;4.13;;;25.80;69.80;;;;;;4973503;28;20026;-83
2023/07/12 05:59:45;;;;;;;20.65;4.25;;;25.70;69.50;;;;;;4974136;28;20053;-83
2023/07/12 06:02:14;;;;;;;9.18;4.30;;;25.70;69.70;;;;;;4973775;28;20038;-83
2023/07/12 06:04:41;;;;;;;7.55;3.50;;;25.50;69.50;;;;;;4974191;28;20505;-83
2023/07/12 06:07:07;;;;;;;12.02;4.63;;;25.50;69.70;;;;;;4973658;28;20096;-83
2023/07/12 06:09:32;;;;;;;6.50;3.83;;;25.40;69.50;;;;;;4974058;28;20026;-83
2023/07/12 06:11:58;;;;;;;5.72;3.83;;;25.30;69.10;;;;;;4973759;28;20022;-83
2023/07/12 06:14:24;;;;;;;9.55;3.85;;;25.20;69.40;;;;;;4973857;28;20023;-83
2023/07/12 06:16:50;;;;;;;6.35;3.58;;;25.20;70.10;;;;;;4991040;28;20429;-83
2023/07/12 06:19:15;;;;;;;10.95;3.85;;;25.10;70.80;;;;;;4973692;28;20087;-83
2023/07/12 06:21:41;;;;;;;10.57;4.40;;;24.90;71.30;;;;;;4991188;28;20061;-83
2023/07/12 06:24:07;;;;;;;13.65;4.28;;;24.80;71.10;;;;;;4973382;28;20187;-82
2023/07/12 06:26:33;;;;;;;5.45;3.80;;;24.60;71.10;;;;;;4973481;28;20038;-82
2023/07/12 06:29:00;;;;;;;7.30;3.50;;;24.50;71.90;;;;;;4990814;28;20498;-83
2023/07/12 06:31:26;;;;;;;6.90;3.80;;;24.40;72.90;;;;;;4973574;28;20026;-82
2023/07/12 06:33:51;;;;;;;9.15;4.22;;;24.30;73.70;;;;;;4973324;28;20121;-83
2023/07/12 06:36:17;;;;;;;10.30;4.68;;;24.20;73.50;;;;;;4973344;28;20132;-83
2023/07/12 06:38:45;;;;;;;7.80;3.80;;;24.10;74.40;;;;;;4973786;28;20085;-83
2023/07/12 06:41:11;;;;;;;13.95;3.85;;;23.90;75.50;;;;;;4973664;28;20034;-83
2023/07/12 06:43:36;;;;;;;5.72;3.88;;;23.90;74.60;;;;;;4973687;28;20083;-83
2023/07/12 06:46:03;;;;;;;13.40;3.72;;;23.80;75.00;;;;;;4973510;28;20045;-83
2023/07/12 06:48:29;;;;;;;16.65;4.00;;;23.70;76.30;;;;;;4972285;28;20030;-82
2023/07/12 06:50:55;;;;;;;6.70;3.72;;;23.70;77.10;;;;;;4973212;28;20505;-84
2023/07/12 06:53:21;;;;;;;10.15;3.67;;;23.50;78.60;;;;;;4973690;28;20414;-83
2023/07/12 06:55:48;;;;;;;5.75;3.13;;;23.50;79.30;;;;;;4990765;28;20486;-83
2023/07/12 06:58:14;;;;;;;5.88;3.47;;;23.40;79.40;;;;;;4973321;28;20034;-83
2023/07/12 07:00:41;;;;;;;7.13;3.72;;;23.30;79.90;;;;;;4990053;28;20620;-83
2023/07/12 07:03:09;;;;;;;15.93;3.78;;;23.40;80.90;;;;;;4973104;28;20026;-81
2023/07/12 07:05:39;;;;;;;14.05;4.55;;;23.40;83.80;;;;;;4973324;28;20038;-83
2023/07/12 07:08:06;;;;;;;15.77;4.35;;;23.40;88.60;;;;;;4972915;28;20033;-84
2023/07/12 07:10:32;;;;;;;12.13;3.90;;;23.40;90.50;;;;;;4973069;28;20022;-83
2023/07/12 07:12:57;;;;;;;11.40;4.45;;;23.40;90.60;;;;;;4972749;28;20068;-83
2023/07/12 07:15:23;;;;;;;10.63;4.05;;;23.50;89.70;;;;;;4972939;28;20034;-83
2023/07/12 07:17:49;;;;;;;6.10;3.60;;;23.60;87.40;;;;;;4990982;28;20026;-83
2023/07/12 07:20:14;;;;;;;10.68;4.38;;;23.70;86.30;;;;;;4972859;28;20033;-84
2023/07/12 07:22:40;;;;;;;9.48;4.05;;;23.80;86.00;;;;;;4972604;28;20464;-82
2023/07/12 07:25:06;;;;;;;6.95;4.15;;;23.90;86.70;;;;;;4989715;28;20030;-82
2023/07/12 07:27:32;;;;;;;7.88;4.45;;;24.00;84.30;;;;;;4972817;28;20469;-83
2023/07/12 07:29:57;;;;;;;4.97;3.67;;;24.20;83.30;;;;;;4989889;28;20058;-83
2023/07/12 07:32:23;;;;;;;8.15;3.90;;;24.40;81.90;;;;;;4972902;28;20032;-82
2023/07/12 07:34:49;;;;;;;9.18;3.72;;;24.50;79.20;;;;;;4990218;28;20495;-83
2023/07/12 07:37:14;;;;;;;8.38;4.47;;;24.60;80.10;;;;;;4989677;28;20026;-82
2023/07/12 07:39:40;;;;;;;8.23;4.07;;;24.80;80.50;;;;;;4972256;28;20498;-83
2023/07/12 07:42:06;;;;;;;12.15;3.85;;;25.20;79.20;;;;;;4972465;28;20030;-84
2023/07/12 07:44:32;;;;;;;7.28;4.05;;;25.60;77.80;;;;;;4989869;28;20379;-82
2023/07/12 07:46:58;;;;;;;6.18;3.58;;;26.30;75.60;;;;;;4989578;28;20053;-82
2023/07/12 07:49:23;;;;;;;7.05;4.43;;;26.90;74.50;;;;;;4990151;28;20061;-83
2023/07/12 07:51:49;;;;;;;11.88;4.03;;;27.40;71.30;;;;;;4989820;28;20038;-84
2023/07/12 07:54:15;;;;;;;4.90;3.72;;;28.10;69.00;;;;;;4972462;28;20022;-83
2023/07/12 07:56:41;;;;;;;8.73;3.97;;;28.60;67.10;;;;;;4971145;28;20026;-84
2023/07/12 07:59:07;;;;;;;13.88;3.50;;;29.30;64.30;;;;;;4971076;28;20084;-83
2023/07/12 08:01:33;;;;;;;14.95;4.22;;;30.10;63.00;;;;;;4971488;28;20034;-84
2023/07/12 08:03:59;;;;;;;8.07;4.28;;;30.20;61.30;;;;;;4971990;28;20088;-82
2023/07/12 08:06:25;;;;;;;7.63;4.15;;;30.60;61.40;;;;;;4971371;28;20037;-85
2023/07/12 08:08:52;;;;;;;7.63;4.85;;;31.00;59.20;;;;;;4971787;28;20062;-83
2023/07/12 08:11:18;;;;;;;9.45;4.88;;;30.90;59.00;;;;;;4970933;28;20121;-83
2023/07/12 08:13:43;;;;;;;6.18;4.53;;;30.60;57.90;;;;;;4971122;28;20574;-83
2023/07/12 08:16:09;;;;;;;5.93;4.22;;;30.70;58.30;;;;;;4988329;28;20525;-83
2023/07/12 08:18:34;;;;;;;11.18;4.65;;;31.00;58.50;;;;;;4971067;28;20121;-83
2023/07/12 08:21:00;;;;;;;10.63;4.50;;;30.80;57.80;;;;;;4970536;28;20022;-84
2023/07/12 08:23:28;;;;;;;6.43;4.07;;;31.20;56.50;;;;;;4971079;28;20034;-83
2023/07/12 08:25:54;;;;;;;6.90;4.15;;;31.80;56.70;;;;;;4971420;28;20029;-84
2023/07/12 08:28:20;;;;;;;8.90;4.32;;;32.40;54.80;;;;;;4988837;28;20038;-81
2023/07/12 08:30:46;;;;;;;9.80;4.20;;;32.70;53.40;;;;;;4971277;28;20026;-83
2023/07/12 08:33:13;;;;;;;5.43;4.18;;;31.80;53.80;;;;;;4970986;28;20716;-83
2023/07/12 08:35:39;;;;;;;12.05;4.00;;;31.30;56.10;;;;;;4971201;28;20079;-83
2023/07/12 08:38:04;;;;;;;9.98;4.10;;;31.10;55.90;;;;;;4970984;28;20054;-82
2023/07/12 08:40:30;;;;;;;8.18;4.60;;;30.60;56.80;;;;;;4971324;28;20034;-83
2023/07/12 08:42:55;;;;;;;8.35;3.97;;;30.20;58.20;;;;;;4971046;28;20034;-83
2023/07/12 08:45:28;;;;;;;9.50;3.92;;;30.20;57.70;;;;;;4970892;28;20027;-82
2023/07/12 08:48:03;;;;;;;7.63;4.13;;;30.50;58.10;;;;;;4971004;28;20125;-84
2023/07/12 08:50:38;;;;;;;16.83;4.63;;;31.00;57.60;;;;;;4971235;28;20041;-84
2023/07/12 08:53:04;;;;;;;8.02;4.28;;;30.70;54.90;;;;;;4971305;28;20022;-84
2023/07/12 08:55:34;;;;;;;5.63;3.53;;;30.80;53.90;;;;;;4971396;28;20262;-83
2023/07/12 08:58:21;;;;;;;5.75;4.13;;;31.20;55.30;;;;;;4971291;28;20030;-84
2023/07/12 09:01:03;;;;;;;14.95;5.93;;;31.50;55.60;;;;;;4970636;28;20371;-83
2023/07/12 09:03:29;;;;;;;6.82;3.95;;;31.80;53.20;;;;;;4970817;28;20127;-83
2023/07/12 09:05:55;;;;;;;10.80;4.25;;;31.90;52.40;;;;;;4969850;28;20453;-84
2023/07/12 09:08:27;;;;;;;8.85;4.50;;;32.10;53.40;;;;;;4969970;28;20149;-84
2023/07/12 09:11:16;;;;;;;9.25;3.90;;;32.50;53.50;;;;;;4987345;28;20027;-83
2023/07/12 09:13:42;;;;;;;7.22;3.58;;;32.60;52.30;;;;;;4970643;28;20076;-82
2023/07/12 09:16:31;;;;;;;9.38;3.90;;;32.80;52.60;;;;;;4987747;28;20038;-84
2023/07/12 09:19:10;;;;;;;12.55;4.20;;;33.10;50.80;;;;;;4970937;28;20030;-83
2023/07/12 09:21:38;;;;;;;5.60;4.00;;;33.10;50.80;;;;;;4970261;28;20121;-84
2023/07/12 09:24:12;;;;;;;7.22;3.88;;;33.10;51.10;;;;;;4987485;28;20018;-84
2023/07/12 09:26:38;;;;;;;6.97;4.13;;;33.00;49.90;;;;;;4987865;28;20519;-83
2023/07/12 09:29:13;;;;;;;14.55;3.42;;;32.90;50.10;;;;;;4970736;28;20037;-84
2023/07/12 09:31:40;;;;;;;;;;;33.10;51.50;;;;;;4971401;28;20030;-84
2023/07/12 09:34:20;;;;;;;13.10;4.55;;;32.90;48.80;;;;;;4988345;28;19910;-84
2023/07/12 09:36:54;;;;;;;7.53;4.43;;;32.40;50.40;;;;;;4988803;28;20483;-84
2023/07/12 09:39:19;;;;;;;6.32;3.33;;;32.30;51.00;;;;;;4970825;28;20119;-84
2023/07/12 09:41:50;;;;;;;10.07;4.45;;;32.70;52.00;;;;;;4988262;28;20061;-85
2023/07/12 09:44:16;;;;;;;5.80;4.35;;;32.70;51.50;;;;;;4970785;28;20043;-85
2023/07/12 09:46:48;;;;;;;5.88;4.53;;;32.30;53.60;;;;;;4970429;28;20034;-85
2023/07/12 09:49:18;;;;;;;20.95;6.20;;;32.10;53.60;;;;;;4970937;28;20042;-84
2023/07/12 09:52:05;;;;;;;10.60;4.07;;;32.40;53.90;;;;;;4970636;28;20066;-84
2023/07/12 09:54:44;;;;;;;9.02;4.18;;;32.60;55.20;;;;;;4970157;28;20375;-84
2023/07/12 09:57:19;;;;;;;15.35;5.20;;;33.00;54.50;;;;;;4987795;28;20054;-83
2023/07/12 09:59:48;;;;;;;9.95;4.90;;;33.30;52.50;;;;;;4970461;28;20030;-83
2023/07/12 10:02:35;;;;;;;14.90;5.57;;;33.50;52.60;;;;;;4969807;28;20140;-84
2023/07/12 10:05:12;;;;;;;9.85;4.43;;;33.50;53.00;;;;;;4970084;28;20030;-83
2023/07/12 10:07:57;;;;;;;16.85;4.35;;;33.30;53.10;;;;;;4987478;28;20043;-83
2023/07/12 10:11:07;;;;;;;9.90;4.38;;;33.10;54.60;;;;;;4969726;28;20478;-84
2023/07/12 10:13:42;;;;;;;8.90;4.15;;;32.90;54.00;;;;;;4981799;28;20046;-82
2023/07/12 10:16:15;;;;;;;8.38;4.57;;;32.30;54.70;;;;;;4969792;28;20135;-84
2023/07/12 10:18:43;;;;;;;11.23;5.13;;;31.90;56.20;;;;;;4970103;28;20129;-83
2023/07/12 10:21:16;;;;;;;12.65;5.22;;;31.70;54.60;;;;;;4969740;28;20030;-83
2023/07/12 10:24:03;;;;;;;9.93;5.30;;;31.60;56.60;;;;;;4990207;28;20026;-82
2023/07/12 10:26:31;;;;;;;11.07;5.20;;;31.50;57.40;;;;;;4990464;28;20426;-82
2023/07/12 10:29:19;;;;;;;9.25;5.25;;;31.60;58.00;;;;;;4973236;28;20027;-83
2023/07/12 10:32:00;;;;;;;14.48;5.85;;;31.50;57.40;;;;;;4973026;28;20038;-84
2023/07/12 10:34:41;;;;;;;10.90;5.40;;;31.60;55.80;;;;;;4973134;28;20035;-83
2023/07/12 10:37:40;;;;;;;22.83;5.60;;;31.60;57.30;;;;;;4973114;28;20440;-83
2023/07/12 10:40:15;;;;;;;9.70;6.03;;;31.70;56.50;;;;;;4972683;28;20042;-83
2023/07/12 10:42:50;;;;;;;13.60;6.10;;;31.80;55.90;;;;;;4972965;28;20035;-85
2023/07/12 10:45:23;;;;;;;19.30;6.00;;;31.80;56.20;;;;;;4972867;28;20046;-83
2023/07/12 10:47:50;;;;;;;9.60;6.18;;;31.90;56.90;;;;;;4972761;28;20042;-82
2023/07/12 10:50:43;;;;;;;11.23;6.07;;;32.10;56.30;;;;;;4972777;28;20023;-84
2023/07/12 10:53:15;;;;;;;15.88;6.13;;;32.40;57.60;;;;;;4972683;28;20026;-83
2023/07/12 10:55:49;;;;;;;20.08;5.95;;;32.60;56.10;;;;;;4972788;28;20058;-84
2023/07/12 10:58:20;;;;;;;16.60;5.90;;;32.70;55.70;;;;;;4990209;28;20443;-84
2023/07/12 11:01:04;;;;;;;12.75;6.72;;;32.60;55.80;;;;;;4972542;28;20065;-83
2023/07/12 11:03:40;;;;;;;10.70;6.50;;;32.40;54.90;;;;;;4972729;28;20383;-84
2023/07/12 11:06:24;;;;;;;15.00;5.82;;;32.30;55.20;;;;;;4989174;28;20042;-84
2023/07/12 11:08:59;;;;;;;6.95;5.80;;;32.20;56.10;;;;;;4989836;28;20062;-84
2023/07/12 11:11:27;;;;;;;14.90;6.75;;;31.90;55.90;;;;;;4972677;28;20117;-84
2023/07/12 11:14:04;;;;;;;27.45;6.78;;;32.10;56.40;;;;;;4973275;28;20023;-84
2023/07/12 11:16:32;;;;;;;14.40;6.05;;;32.30;55.40;;;;;;4972600;28;20079;-82
2023/07/12 11:18:58;;;;;;;14.15;6.95;;;32.20;56.40;;;;;;4972818;28;20034;-84
2023/07/12 11:22:07;;;;;;;10.65;6.88;;;32.30;54.80;;;;;;4972086;28;20081;-82
2023/07/12 11:24:37;;;;;;;10.98;5.75;;;32.00;56.00;;;;;;4993489;28;20485;-79
2023/07/12 11:27:23;;;;;;;15.20;6.20;;;32.00;57.00;;;;;;5009671;28;20049;-80
2023/07/12 11:29:52;;;;;;;;;;;31.90;57.70;;;;;;4979385;28;20030;-81
2023/07/12 11:32:32;;;;;;;20.80;6.43;;;31.90;57.10;;;;;;4989616;28;19917;-81
2023/07/12 11:35:15;;;;;;;17.80;6.88;;;31.90;56.90;;;;;;4971336;28;20026;-81
2023/07/12 11:37:45;;;;;;;18.27;7.20;;;32.00;57.00;;;;;;4971747;28;20034;-82
2023/07/12 11:40:20;;;;;;;17.02;6.95;;;32.00;56.40;;;;;;4971835;28;20602;-83
2023/07/12 11:42:47;;;;;;;15.23;6.57;;;31.90;57.80;;;;;;4971967;28;20036;-82
2023/07/12 11:45:17;;;;;;;15.48;6.68;;;32.00;57.80;;;;;;4972210;28;20038;-81
2023/07/12 11:47:46;;;;;;;14.98;6.68;;;32.00;59.00;;;;;;4971145;28;20049;-83
2023/07/12 11:50:20;;;;;;;24.17;7.20;;;32.00;58.40;;;;;;4970805;28;20065;-82
2023/07/12 11:52:46;;;;;;;18.42;7.35;;;31.90;59.20;;;;;;4971378;28;20022;-83
2023/07/12 11:55:16;;;;;;;21.27;8.05;;;31.90;59.10;;;;;;4971647;28;20080;-82
2023/07/12 11:57:44;;;;;;;17.02;6.80;;;32.00;57.80;;;;;;4971285;28;20030;-81
2023/07/12 12:00:23;;;;;;;22.20;5.97;;;32.10;59.30;;;;;;4988687;28;20038;-82
2023/07/12 12:02:58;;;;;;;15.98;6.43;;;32.10;59.00;;;;;;4988604;28;20453;-81
2023/07/12 12:05:32;;;;;;;11.30;7.20;;;32.40;58.10;;;;;;4971248;28;20403;-82
2023/07/12 12:08:02;;;;;;;12.32;7.60;;;32.40;56.50;;;;;;4971135;28;20137;-81
2023/07/12 12:10:34;;;;;;;10.80;6.70;;;32.20;57.10;;;;;;4988538;28;20023;-83
2023/07/12 12:12:59;;;;;;;17.52;7.20;;;32.00;57.60;;;;;;4988044;28;20026;-82
2023/07/12 12:15:30;;;;;;;11.02;6.70;;;32.00;58.40;;;;;;4971105;28;20022;-81
2023/07/12 12:18:03;;;;;;;12.77;6.28;;;32.10;58.60;;;;;;4971214;28;20032;-82
2023/07/12 12:20:29;;;;;;;16.77;6.22;;;32.20;58.90;;;;;;4970949;28;20030;-82
2023/07/12 12:23:15;;;;;;;12.05;6.93;;;32.30;59.00;;;;;;4988616;28;20429;-82
2023/07/12 12:25:49;;;;;;;17.50;7.00;;;32.50;58.20;;;;;;4971211;28;20425;-82
2023/07/12 12:28:31;;;;;;;9.52;6.10;;;32.50;57.60;;;;;;4971339;28;20202;-84
2023/07/12 12:31:15;;;;;;;12.55;6.00;;;32.60;59.30;;;;;;4971255;28;20034;-82
2023/07/12 12:33:47;;;;;;;22.65;6.38;;;32.70;60.20;;;;;;4971258;28;20030;-81
2023/07/12 12:36:25;;;;;;;10.32;6.57;;;32.80;58.50;;;;;;4971100;28;20030;-83
2023/07/12 12:39:17;;;;;;;21.42;6.32;;;32.80;57.90;;;;;;4988962;28;20081;-84
2023/07/12 12:41:53;;;;;;;13.45;6.25;;;32.90;59.50;;;;;;4971442;28;20034;-83
2023/07/12 12:44:20;;;;;;;14.93;7.30;;;32.90;58.60;;;;;;4971382;28;20033;-83
2023/07/12 12:46:51;;;;;;;14.77;6.38;;;33.10;58.20;;;;;;4969890;28;20042;-83
2023/07/12 12:49:32;;;;;;;9.60;5.95;;;33.20;58.90;;;;;;4971055;28;20025;-83
2023/07/12 12:52:34;;;;;;;22.45;6.70;;;33.20;59.60;;;;;;4988793;28;20071;-82
2023/07/12 12:55:03;;;;;;;13.20;6.45;;;33.20;58.10;;;;;;4972157;28;20041;-82